sensor_id;sensor_type;location;lat;lon;timestamp;P1;durP1;ratioP1;P2;durP2;ratioP2
16288;SDS011;26089;43.538;5.250;2022-08-01T00:00:22;3.80;;;2.63;;
16288;SDS011;26089;43.538;5.250;2022-08-01T00:02:50;3.35;;;2.63;;
16288;SDS011;26089;43.538;5.250;2022-08-01T00:05:17;3.65;;;3.10;;
16288;SDS011;26089;43.538;5.250;2022-08-01T00:07:45;3.17;;;2.72;;
16288;SDS011;26089;43.538;5.250;2022-08-01T00:10:13;3.15;;;2.92;;
16288;SDS011;26089;43.538;5.250;2022-08-01T00:12:42;3.13;;;2.90;;
16288;SDS011;26089;43.538;5.250;2022-08-01T00:15:10;2.97;;;2.70;;
16288;SDS011;26089;43.538;5.250;2022-08-01T00:17:39;4.38;;;2.45;;
16288;SDS011;26089;43.538;5.250;2022-08-01T00:20:07;3.17;;;2.88;;
16288;SDS011;26089;43.538;5.250;2022-08-01T00:22:36;3.63;;;3.33;;
16288;SDS011;26089;43.538;5.250;2022-08-01T00:25:05;4.68;;;3.15;;
16288;SDS011;26089;43.538;5.250;2022-08-01T00:27:33;4.20;;;2.70;;
16288;SDS011;26089;43.538;5.250;2022-08-01T00:30:00;2.80;;;2.65;;
16288;SDS011;26089;43.538;5.250;2022-08-01T00:32:27;2.92;;;2.72;;
16288;SDS011;26089;43.538;5.250;2022-08-01T00:34:56;3.58;;;2.63;;
16288;SDS011;26089;43.538;5.250;2022-08-01T00:37:23;4.07;;;3.25;;
16288;SDS011;26089;43.538;5.250;2022-08-01T00:39:50;3.35;;;3.15;;
16288;SDS011;26089;43.538;5.250;2022-08-01T00:42:19;3.20;;;2.88;;
16288;SDS011;26089;43.538;5.250;2022-08-01T00:44:46;4.22;;;2.83;;
16288;SDS011;26089;43.538;5.250;2022-08-01T00:47:13;4.05;;;2.90;;
16288;SDS011;26089;43.538;5.250;2022-08-01T00:49:40;3.85;;;3.17;;
16288;SDS011;26089;43.538;5.250;2022-08-01T00:52:07;3.22;;;2.95;;
16288;SDS011;26089;43.538;5.250;2022-08-01T00:54:35;2.97;;;2.78;;
16288;SDS011;26089;43.538;5.250;2022-08-01T00:57:02;3.38;;;3.13;;
16288;SDS011;26089;43.538;5.250;2022-08-01T00:59:31;3.35;;;3.05;;
16288;SDS011;26089;43.538;5.250;2022-08-01T01:01:59;3.05;;;2.85;;
16288;SDS011;26089;43.538;5.250;2022-08-01T01:04:26;5.95;;;3.53;;
16288;SDS011;26089;43.538;5.250;2022-08-01T01:06:55;3.50;;;2.70;;
16288;SDS011;26089;43.538;5.250;2022-08-01T01:09:32;3.10;;;2.90;;
16288;SDS011;26089;43.538;5.250;2022-08-01T01:12:13;3.03;;;2.72;;
16288;SDS011;26089;43.538;5.250;2022-08-01T01:14:47;3.55;;;2.90;;
16288;SDS011;26089;43.538;5.250;2022-08-01T01:17:20;3.42;;;2.95;;
16288;SDS011;26089;43.538;5.250;2022-08-01T01:19:54;3.70;;;3.25;;
16288;SDS011;26089;43.538;5.250;2022-08-01T01:22:39;4.35;;;3.33;;
16288;SDS011;26089;43.538;5.250;2022-08-01T01:25:19;5.07;;;3.30;;
16288;SDS011;26089;43.538;5.250;2022-08-01T01:27:57;4.13;;;3.20;;
16288;SDS011;26089;43.538;5.250;2022-08-01T01:30:36;3.35;;;3.05;;
16288;SDS011;26089;43.538;5.250;2022-08-01T01:33:05;4.65;;;3.83;;
16288;SDS011;26089;43.538;5.250;2022-08-01T01:35:35;4.10;;;2.80;;
16288;SDS011;26089;43.538;5.250;2022-08-01T01:38:09;5.45;;;3.13;;
16288;SDS011;26089;43.538;5.250;2022-08-01T01:40:41;4.95;;;3.17;;
16288;SDS011;26089;43.538;5.250;2022-08-01T01:43:09;5.10;;;3.40;;
16288;SDS011;26089;43.538;5.250;2022-08-01T01:45:39;3.50;;;3.22;;
16288;SDS011;26089;43.538;5.250;2022-08-01T01:48:07;4.38;;;3.17;;
16288;SDS011;26089;43.538;5.250;2022-08-01T01:50:39;3.50;;;3.28;;
16288;SDS011;26089;43.538;5.250;2022-08-01T01:53:07;3.70;;;3.40;;
16288;SDS011;26089;43.538;5.250;2022-08-01T01:55:36;5.40;;;4.32;;
16288;SDS011;26089;43.538;5.250;2022-08-01T01:58:05;5.75;;;4.50;;
16288;SDS011;26089;43.538;5.250;2022-08-01T02:00:34;5.05;;;4.35;;
16288;SDS011;26089;43.538;5.250;2022-08-01T02:03:04;5.90;;;4.35;;
16288;SDS011;26089;43.538;5.250;2022-08-01T02:05:33;4.97;;;4.60;;
16288;SDS011;26089;43.538;5.250;2022-08-01T02:08:03;6.57;;;5.43;;
16288;SDS011;26089;43.538;5.250;2022-08-01T02:10:31;4.95;;;4.45;;
16288;SDS011;26089;43.538;5.250;2022-08-01T02:12:59;4.80;;;4.30;;
16288;SDS011;26089;43.538;5.250;2022-08-01T02:15:29;5.50;;;4.25;;
16288;SDS011;26089;43.538;5.250;2022-08-01T02:17:58;3.75;;;3.40;;
16288;SDS011;26089;43.538;5.250;2022-08-01T02:20:29;4.00;;;3.20;;
16288;SDS011;26089;43.538;5.250;2022-08-01T02:22:57;7.13;;;3.42;;
16288;SDS011;26089;43.538;5.250;2022-08-01T02:25:31;3.53;;;3.33;;
16288;SDS011;26089;43.538;5.250;2022-08-01T02:28:06;3.08;;;2.50;;
16288;SDS011;26089;43.538;5.250;2022-08-01T02:30:35;4.00;;;3.10;;
16288;SDS011;26089;43.538;5.250;2022-08-01T02:33:05;3.63;;;3.20;;
16288;SDS011;26089;43.538;5.250;2022-08-01T02:35:41;3.33;;;2.90;;
16288;SDS011;26089;43.538;5.250;2022-08-01T02:38:09;4.10;;;3.00;;
16288;SDS011;26089;43.538;5.250;2022-08-01T02:40:40;4.43;;;3.60;;
16288;SDS011;26089;43.538;5.250;2022-08-01T02:43:09;4.20;;;3.80;;
16288;SDS011;26089;43.538;5.250;2022-08-01T02:45:39;4.82;;;4.40;;
16288;SDS011;26089;43.538;5.250;2022-08-01T02:48:10;4.30;;;3.90;;
16288;SDS011;26089;43.538;5.250;2022-08-01T02:50:41;5.30;;;3.65;;
16288;SDS011;26089;43.538;5.250;2022-08-01T02:53:10;4.03;;;3.72;;
16288;SDS011;26089;43.538;5.250;2022-08-01T02:55:39;5.75;;;3.83;;
16288;SDS011;26089;43.538;5.250;2022-08-01T02:58:10;3.63;;;3.33;;
16288;SDS011;26089;43.538;5.250;2022-08-01T03:00:40;4.07;;;3.38;;
16288;SDS011;26089;43.538;5.250;2022-08-01T03:03:08;3.58;;;3.30;;
16288;SDS011;26089;43.538;5.250;2022-08-01T03:05:36;4.47;;;3.20;;
16288;SDS011;26089;43.538;5.250;2022-08-01T03:08:06;3.50;;;2.90;;
16288;SDS011;26089;43.538;5.250;2022-08-01T03:10:35;3.50;;;3.15;;
16288;SDS011;26089;43.538;5.250;2022-08-01T03:13:05;4.07;;;3.17;;
16288;SDS011;26089;43.538;5.250;2022-08-01T03:15:35;3.30;;;3.08;;
16288;SDS011;26089;43.538;5.250;2022-08-01T03:18:05;3.65;;;3.38;;
16288;SDS011;26089;43.538;5.250;2022-08-01T03:20:34;3.83;;;3.53;;
16288;SDS011;26089;43.538;5.250;2022-08-01T03:23:03;3.90;;;3.58;;
16288;SDS011;26089;43.538;5.250;2022-08-01T03:25:34;5.50;;;3.65;;
16288;SDS011;26089;43.538;5.250;2022-08-01T03:28:04;4.38;;;3.67;;
16288;SDS011;26089;43.538;5.250;2022-08-01T03:30:33;4.28;;;3.35;;
16288;SDS011;26089;43.538;5.250;2022-08-01T03:33:03;3.65;;;3.30;;
16288;SDS011;26089;43.538;5.250;2022-08-01T03:35:32;3.88;;;3.53;;
16288;SDS011;26089;43.538;5.250;2022-08-01T03:38:03;3.28;;;2.92;;
16288;SDS011;26089;43.538;5.250;2022-08-01T03:40:35;3.50;;;3.20;;
16288;SDS011;26089;43.538;5.250;2022-08-01T03:43:07;3.60;;;3.30;;
16288;SDS011;26089;43.538;5.250;2022-08-01T03:45:40;4.60;;;3.13;;
16288;SDS011;26089;43.538;5.250;2022-08-01T03:48:13;4.82;;;3.53;;
16288;SDS011;26089;43.538;5.250;2022-08-01T03:50:44;5.55;;;3.28;;
16288;SDS011;26089;43.538;5.250;2022-08-01T03:53:15;6.60;;;4.07;;
16288;SDS011;26089;43.538;5.250;2022-08-01T03:55:46;4.35;;;3.92;;
16288;SDS011;26089;43.538;5.250;2022-08-01T03:58:14;4.22;;;3.67;;
16288;SDS011;26089;43.538;5.250;2022-08-01T04:00:41;3.92;;;3.47;;
16288;SDS011;26089;43.538;5.250;2022-08-01T04:03:09;3.90;;;3.60;;
16288;SDS011;26089;43.538;5.250;2022-08-01T04:05:40;6.18;;;3.50;;
16288;SDS011;26089;43.538;5.250;2022-08-01T04:08:08;4.00;;;3.50;;
16288;SDS011;26089;43.538;5.250;2022-08-01T04:10:36;3.95;;;3.55;;
16288;SDS011;26089;43.538;5.250;2022-08-01T04:13:03;3.55;;;3.22;;
16288;SDS011;26089;43.538;5.250;2022-08-01T04:15:30;4.95;;;3.65;;
16288;SDS011;26089;43.538;5.250;2022-08-01T04:17:57;4.68;;;3.75;;
16288;SDS011;26089;43.538;5.250;2022-08-01T04:20:24;4.75;;;3.58;;
16288;SDS011;26089;43.538;5.250;2022-08-01T04:22:51;4.60;;;3.92;;
16288;SDS011;26089;43.538;5.250;2022-08-01T04:25:19;3.88;;;3.28;;
16288;SDS011;26089;43.538;5.250;2022-08-01T04:27:52;7.00;;;4.78;;
16288;SDS011;26089;43.538;5.250;2022-08-01T04:30:22;4.30;;;3.30;;
16288;SDS011;26089;43.538;5.250;2022-08-01T04:32:57;3.95;;;3.65;;
16288;SDS011;26089;43.538;5.250;2022-08-01T04:35:27;5.70;;;3.65;;
16288;SDS011;26089;43.538;5.250;2022-08-01T04:37:55;7.43;;;4.18;;
16288;SDS011;26089;43.538;5.250;2022-08-01T04:40:26;4.07;;;3.78;;
16288;SDS011;26089;43.538;5.250;2022-08-01T04:42:55;4.47;;;4.07;;
16288;SDS011;26089;43.538;5.250;2022-08-01T04:45:23;5.30;;;3.85;;
16288;SDS011;26089;43.538;5.250;2022-08-01T04:47:51;4.18;;;3.78;;
16288;SDS011;26089;43.538;5.250;2022-08-01T04:50:18;4.38;;;4.07;;
16288;SDS011;26089;43.538;5.250;2022-08-01T04:52:47;5.18;;;4.00;;
16288;SDS011;26089;43.538;5.250;2022-08-01T04:55:14;4.60;;;3.90;;
16288;SDS011;26089;43.538;5.250;2022-08-01T04:57:42;4.03;;;3.72;;
16288;SDS011;26089;43.538;5.250;2022-08-01T05:00:13;6.05;;;3.75;;
16288;SDS011;26089;43.538;5.250;2022-08-01T05:02:41;4.43;;;4.07;;
16288;SDS011;26089;43.538;5.250;2022-08-01T05:05:08;4.13;;;3.70;;
16288;SDS011;26089;43.538;5.250;2022-08-01T05:07:36;4.20;;;3.90;;
16288;SDS011;26089;43.538;5.250;2022-08-01T05:10:03;4.45;;;3.78;;
16288;SDS011;26089;43.538;5.250;2022-08-01T05:12:31;4.45;;;4.03;;
16288;SDS011;26089;43.538;5.250;2022-08-01T05:14:59;4.13;;;3.70;;
16288;SDS011;26089;43.538;5.250;2022-08-01T05:17:28;4.93;;;3.85;;
16288;SDS011;26089;43.538;5.250;2022-08-01T05:19:55;4.85;;;3.88;;
16288;SDS011;26089;43.538;5.250;2022-08-01T05:22:22;4.32;;;3.30;;
16288;SDS011;26089;43.538;5.250;2022-08-01T05:24:50;6.20;;;4.07;;
16288;SDS011;26089;43.538;5.250;2022-08-01T05:27:18;3.83;;;3.53;;
16288;SDS011;26089;43.538;5.250;2022-08-01T05:29:45;3.85;;;3.55;;
16288;SDS011;26089;43.538;5.250;2022-08-01T05:32:12;3.78;;;3.47;;
16288;SDS011;26089;43.538;5.250;2022-08-01T05:34:41;4.60;;;3.78;;
16288;SDS011;26089;43.538;5.250;2022-08-01T05:37:08;3.67;;;3.38;;
16288;SDS011;26089;43.538;5.250;2022-08-01T05:39:35;3.90;;;3.25;;
16288;SDS011;26089;43.538;5.250;2022-08-01T05:42:02;8.60;;;3.55;;
16288;SDS011;26089;43.538;5.250;2022-08-01T05:44:29;4.88;;;3.22;;
16288;SDS011;26089;43.538;5.250;2022-08-01T05:46:56;4.40;;;3.03;;
16288;SDS011;26089;43.538;5.250;2022-08-01T05:49:23;8.25;;;3.65;;
16288;SDS011;26089;43.538;5.250;2022-08-01T05:51:52;6.30;;;3.92;;
16288;SDS011;26089;43.538;5.250;2022-08-01T05:54:19;5.32;;;3.88;;
16288;SDS011;26089;43.538;5.250;2022-08-01T05:56:46;6.13;;;3.78;;
16288;SDS011;26089;43.538;5.250;2022-08-01T05:59:13;3.88;;;3.55;;
16288;SDS011;26089;43.538;5.250;2022-08-01T06:01:40;3.85;;;3.55;;
16288;SDS011;26089;43.538;5.250;2022-08-01T06:04:07;4.35;;;4.05;;
16288;SDS011;26089;43.538;5.250;2022-08-01T06:06:34;6.15;;;4.00;;
16288;SDS011;26089;43.538;5.250;2022-08-01T06:09:02;4.68;;;3.58;;
16288;SDS011;26089;43.538;5.250;2022-08-01T06:11:29;4.68;;;3.95;;
16288;SDS011;26089;43.538;5.250;2022-08-01T06:13:56;5.53;;;3.70;;
16288;SDS011;26089;43.538;5.250;2022-08-01T06:16:23;4.70;;;4.00;;
16288;SDS011;26089;43.538;5.250;2022-08-01T06:18:50;6.55;;;4.15;;
16288;SDS011;26089;43.538;5.250;2022-08-01T06:21:17;5.03;;;3.97;;
16288;SDS011;26089;43.538;5.250;2022-08-01T06:23:44;6.45;;;3.50;;
16288;SDS011;26089;43.538;5.250;2022-08-01T06:26:13;6.60;;;3.88;;
16288;SDS011;26089;43.538;5.250;2022-08-01T06:28:40;5.25;;;3.90;;
16288;SDS011;26089;43.538;5.250;2022-08-01T06:31:07;6.00;;;3.83;;
16288;SDS011;26089;43.538;5.250;2022-08-01T06:33:35;3.60;;;3.35;;
16288;SDS011;26089;43.538;5.250;2022-08-01T06:36:02;6.47;;;4.07;;
16288;SDS011;26089;43.538;5.250;2022-08-01T06:38:30;4.20;;;3.78;;
16288;SDS011;26089;43.538;5.250;2022-08-01T06:40:57;4.53;;;3.88;;
16288;SDS011;26089;43.538;5.250;2022-08-01T06:43:25;4.28;;;3.92;;
16288;SDS011;26089;43.538;5.250;2022-08-01T06:45:52;4.28;;;3.80;;
16288;SDS011;26089;43.538;5.250;2022-08-01T06:48:19;5.55;;;4.05;;
16288;SDS011;26089;43.538;5.250;2022-08-01T06:50:46;4.40;;;4.10;;
16288;SDS011;26089;43.538;5.250;2022-08-01T06:53:13;6.15;;;4.28;;
16288;SDS011;26089;43.538;5.250;2022-08-01T06:55:40;5.55;;;3.80;;
16288;SDS011;26089;43.538;5.250;2022-08-01T06:58:07;7.63;;;4.13;;
16288;SDS011;26089;43.538;5.250;2022-08-01T07:00:35;5.20;;;3.92;;
16288;SDS011;26089;43.538;5.250;2022-08-01T07:03:02;6.13;;;3.80;;
16288;SDS011;26089;43.538;5.250;2022-08-01T07:05:29;4.75;;;3.88;;
16288;SDS011;26089;43.538;5.250;2022-08-01T07:07:56;7.30;;;3.80;;
16288;SDS011;26089;43.538;5.250;2022-08-01T07:10:24;6.97;;;3.80;;
16288;SDS011;26089;43.538;5.250;2022-08-01T07:12:51;7.00;;;3.60;;
16288;SDS011;26089;43.538;5.250;2022-08-01T07:15:18;4.30;;;3.63;;
16288;SDS011;26089;43.538;5.250;2022-08-01T07:17:52;3.97;;;3.67;;
16288;SDS011;26089;43.538;5.250;2022-08-01T07:20:19;6.22;;;3.67;;
16288;SDS011;26089;43.538;5.250;2022-08-01T07:22:46;5.38;;;3.38;;
16288;SDS011;26089;43.538;5.250;2022-08-01T07:25:13;4.65;;;4.22;;
16288;SDS011;26089;43.538;5.250;2022-08-01T07:27:40;6.60;;;3.95;;
16288;SDS011;26089;43.538;5.250;2022-08-01T07:30:08;4.15;;;3.72;;
16288;SDS011;26089;43.538;5.250;2022-08-01T07:32:35;3.75;;;3.55;;
16288;SDS011;26089;43.538;5.250;2022-08-01T07:35:04;3.83;;;3.38;;
16288;SDS011;26089;43.538;5.250;2022-08-01T07:37:31;4.00;;;3.65;;
16288;SDS011;26089;43.538;5.250;2022-08-01T07:39:59;4.10;;;3.30;;
16288;SDS011;26089;43.538;5.250;2022-08-01T07:42:26;4.30;;;3.55;;
16288;SDS011;26089;43.538;5.250;2022-08-01T07:44:53;4.32;;;3.55;;
16288;SDS011;26089;43.538;5.250;2022-08-01T07:47:23;4.40;;;3.75;;
16288;SDS011;26089;43.538;5.250;2022-08-01T07:49:50;4.03;;;3.63;;
16288;SDS011;26089;43.538;5.250;2022-08-01T07:52:19;4.22;;;3.38;;
16288;SDS011;26089;43.538;5.250;2022-08-01T07:54:46;4.30;;;3.50;;
16288;SDS011;26089;43.538;5.250;2022-08-01T07:57:13;3.60;;;3.30;;
16288;SDS011;26089;43.538;5.250;2022-08-01T07:59:40;3.95;;;3.13;;
16288;SDS011;26089;43.538;5.250;2022-08-01T08:02:07;4.22;;;3.60;;
16288;SDS011;26089;43.538;5.250;2022-08-01T08:04:34;3.80;;;3.05;;
16288;SDS011;26089;43.538;5.250;2022-08-01T08:07:01;4.53;;;3.53;;
16288;SDS011;26089;43.538;5.250;2022-08-01T08:09:29;3.35;;;3.05;;
16288;SDS011;26089;43.538;5.250;2022-08-01T08:11:56;3.38;;;2.70;;
16288;SDS011;26089;43.538;5.250;2022-08-01T08:14:24;4.55;;;3.25;;
16288;SDS011;26089;43.538;5.250;2022-08-01T08:16:51;3.20;;;3.00;;
16288;SDS011;26089;43.538;5.250;2022-08-01T08:19:18;3.97;;;3.53;;
16288;SDS011;26089;43.538;5.250;2022-08-01T08:21:45;3.33;;;3.03;;
16288;SDS011;26089;43.538;5.250;2022-08-01T08:24:12;5.80;;;3.30;;
16288;SDS011;26089;43.538;5.250;2022-08-01T08:26:51;3.70;;;3.10;;
16288;SDS011;26089;43.538;5.250;2022-08-01T08:29:19;6.05;;;3.75;;
16288;SDS011;26089;43.538;5.250;2022-08-01T08:31:47;4.78;;;3.50;;
16288;SDS011;26089;43.538;5.250;2022-08-01T08:34:16;4.28;;;2.97;;
16288;SDS011;26089;43.538;5.250;2022-08-01T08:36:43;3.40;;;3.10;;
16288;SDS011;26089;43.538;5.250;2022-08-01T08:39:10;3.45;;;3.17;;
16288;SDS011;26089;43.538;5.250;2022-08-01T08:41:37;3.50;;;2.90;;
16288;SDS011;26089;43.538;5.250;2022-08-01T08:44:06;3.65;;;3.00;;
16288;SDS011;26089;43.538;5.250;2022-08-01T08:46:34;4.68;;;2.90;;
16288;SDS011;26089;43.538;5.250;2022-08-01T08:49:07;3.17;;;2.88;;
16288;SDS011;26089;43.538;5.250;2022-08-01T08:51:37;3.20;;;3.00;;
16288;SDS011;26089;43.538;5.250;2022-08-01T08:54:06;3.80;;;3.05;;
16288;SDS011;26089;43.538;5.250;2022-08-01T08:56:34;4.45;;;3.30;;
16288;SDS011;26089;43.538;5.250;2022-08-01T08:59:02;5.88;;;3.70;;
16288;SDS011;26089;43.538;5.250;2022-08-01T09:01:31;6.65;;;3.53;;
16288;SDS011;26089;43.538;5.250;2022-08-01T09:04:00;4.10;;;3.70;;
16288;SDS011;26089;43.538;5.250;2022-08-01T09:06:28;5.88;;;3.90;;
16288;SDS011;26089;43.538;5.250;2022-08-01T09:08:55;3.92;;;3.53;;
16288;SDS011;26089;43.538;5.250;2022-08-01T09:11:22;3.30;;;3.10;;
16288;SDS011;26089;43.538;5.250;2022-08-01T09:14:03;7.85;;;3.47;;
16288;SDS011;26089;43.538;5.250;2022-08-01T09:16:33;6.30;;;3.17;;
16288;SDS011;26089;43.538;5.250;2022-08-01T09:19:08;3.92;;;2.80;;
16288;SDS011;26089;43.538;5.250;2022-08-01T09:21:39;7.18;;;3.13;;
16288;SDS011;26089;43.538;5.250;2022-08-01T09:24:20;6.00;;;3.35;;
16288;SDS011;26089;43.538;5.250;2022-08-01T09:26:48;5.07;;;3.33;;
16288;SDS011;26089;43.538;5.250;2022-08-01T09:29:18;4.07;;;3.47;;
16288;SDS011;26089;43.538;5.250;2022-08-01T09:31:48;5.18;;;2.88;;
16288;SDS011;26089;43.538;5.250;2022-08-01T09:34:23;6.35;;;3.38;;
16288;SDS011;26089;43.538;5.250;2022-08-01T09:36:51;3.25;;;3.00;;
16288;SDS011;26089;43.538;5.250;2022-08-01T09:39:21;5.50;;;2.90;;
16288;SDS011;26089;43.538;5.250;2022-08-01T09:41:50;3.20;;;2.90;;
16288;SDS011;26089;43.538;5.250;2022-08-01T09:44:18;3.38;;;2.80;;
16288;SDS011;26089;43.538;5.250;2022-08-01T09:46:53;3.40;;;2.85;;
16288;SDS011;26089;43.538;5.250;2022-08-01T09:49:28;3.00;;;2.80;;
16288;SDS011;26089;43.538;5.250;2022-08-01T09:51:56;3.53;;;2.90;;
16288;SDS011;26089;43.538;5.250;2022-08-01T09:54:28;3.97;;;2.65;;
16288;SDS011;26089;43.538;5.250;2022-08-01T09:57:07;4.28;;;2.83;;
16288;SDS011;26089;43.538;5.250;2022-08-01T09:59:39;3.88;;;2.67;;
16288;SDS011;26089;43.538;5.250;2022-08-01T10:02:10;3.20;;;2.60;;
16288;SDS011;26089;43.538;5.250;2022-08-01T10:04:46;2.78;;;2.40;;
16288;SDS011;26089;43.538;5.250;2022-08-01T10:07:14;2.85;;;2.65;;
16288;SDS011;26089;43.538;5.250;2022-08-01T10:09:42;3.05;;;2.85;;
16288;SDS011;26089;43.538;5.250;2022-08-01T10:12:10;2.20;;;2.00;;
16288;SDS011;26089;43.538;5.250;2022-08-01T10:14:38;3.42;;;2.47;;
16288;SDS011;26089;43.538;5.250;2022-08-01T10:17:07;5.65;;;2.80;;
16288;SDS011;26089;43.538;5.250;2022-08-01T10:19:36;4.38;;;2.70;;
16288;SDS011;26089;43.538;5.250;2022-08-01T10:22:07;3.90;;;2.53;;
16288;SDS011;26089;43.538;5.250;2022-08-01T10:24:36;2.75;;;2.30;;
16288;SDS011;26089;43.538;5.250;2022-08-01T10:27:05;3.10;;;2.33;;
16288;SDS011;26089;43.538;5.250;2022-08-01T10:29:35;2.50;;;2.30;;
16288;SDS011;26089;43.538;5.250;2022-08-01T10:32:04;2.38;;;2.20;;
16288;SDS011;26089;43.538;5.250;2022-08-01T10:34:36;2.95;;;2.17;;
16288;SDS011;26089;43.538;5.250;2022-08-01T10:37:03;2.00;;;1.90;;
16288;SDS011;26089;43.538;5.250;2022-08-01T10:39:31;2.55;;;2.10;;
16288;SDS011;26089;43.538;5.250;2022-08-01T10:41:58;2.65;;;2.17;;
16288;SDS011;26089;43.538;5.250;2022-08-01T10:44:27;2.33;;;2.10;;
16288;SDS011;26089;43.538;5.250;2022-08-01T10:46:57;3.08;;;2.22;;
16288;SDS011;26089;43.538;5.250;2022-08-01T10:49:43;2.67;;;2.45;;
16288;SDS011;26089;43.538;5.250;2022-08-01T10:52:16;2.40;;;2.30;;
16288;SDS011;26089;43.538;5.250;2022-08-01T10:54:44;4.45;;;2.58;;
16288;SDS011;26089;43.538;5.250;2022-08-01T10:57:11;3.22;;;2.50;;
16288;SDS011;26089;43.538;5.250;2022-08-01T10:59:47;2.50;;;2.30;;
16288;SDS011;26089;43.538;5.250;2022-08-01T11:02:19;2.42;;;2.22;;
16288;SDS011;26089;43.538;5.250;2022-08-01T11:04:56;3.38;;;2.30;;
16288;SDS011;26089;43.538;5.250;2022-08-01T11:07:35;2.88;;;2.50;;
16288;SDS011;26089;43.538;5.250;2022-08-01T11:10:15;2.53;;;2.17;;
16288;SDS011;26089;43.538;5.250;2022-08-01T11:12:48;2.92;;;2.50;;
16288;SDS011;26089;43.538;5.250;2022-08-01T11:15:18;3.00;;;2.33;;
16288;SDS011;26089;43.538;5.250;2022-08-01T11:17:54;2.85;;;2.40;;
16288;SDS011;26089;43.538;5.250;2022-08-01T11:20:23;2.70;;;2.50;;
16288;SDS011;26089;43.538;5.250;2022-08-01T11:28:40;2.08;;;1.90;;
16288;SDS011;26089;43.538;5.250;2022-08-01T11:31:26;3.03;;;2.17;;
16288;SDS011;26089;43.538;5.250;2022-08-01T11:33:56;3.03;;;2.65;;
16288;SDS011;26089;43.538;5.250;2022-08-01T11:36:25;3.10;;;2.53;;
16288;SDS011;26089;43.538;5.250;2022-08-01T11:41:43;4.35;;;2.30;;
16288;SDS011;26089;43.538;5.250;2022-08-01T11:44:13;3.47;;;2.10;;
16288;SDS011;26089;43.538;5.250;2022-08-01T11:52:26;1.92;;;1.83;;
16288;SDS011;26089;43.538;5.250;2022-08-01T11:54:55;2.53;;;2.03;;
16288;SDS011;26089;43.538;5.250;2022-08-01T11:57:23;2.63;;;2.47;;
16288;SDS011;26089;43.538;5.250;2022-08-01T11:59:52;2.67;;;2.10;;
16288;SDS011;26089;43.538;5.250;2022-08-01T12:02:21;3.22;;;2.10;;
16288;SDS011;26089;43.538;5.250;2022-08-01T12:04:53;2.97;;;2.20;;
16288;SDS011;26089;43.538;5.250;2022-08-01T12:07:21;3.20;;;2.30;;
16288;SDS011;26089;43.538;5.250;2022-08-01T12:09:57;2.55;;;2.20;;
16288;SDS011;26089;43.538;5.250;2022-08-01T12:12:26;2.50;;;2.30;;
16288;SDS011;26089;43.538;5.250;2022-08-01T12:14:54;2.40;;;2.17;;
16288;SDS011;26089;43.538;5.250;2022-08-01T12:17:32;2.65;;;1.95;;
16288;SDS011;26089;43.538;5.250;2022-08-01T12:20:01;2.33;;;2.10;;
16288;SDS011;26089;43.538;5.250;2022-08-01T12:22:29;3.55;;;2.15;;
16288;SDS011;26089;43.538;5.250;2022-08-01T12:24:58;4.15;;;2.47;;
16288;SDS011;26089;43.538;5.250;2022-08-01T12:27:31;3.75;;;2.20;;
16288;SDS011;26089;43.538;5.250;2022-08-01T12:29:58;2.25;;;2.15;;
16288;SDS011;26089;43.538;5.250;2022-08-01T12:32:26;3.03;;;1.92;;
16288;SDS011;26089;43.538;5.250;2022-08-01T12:34:56;2.63;;;2.10;;
16288;SDS011;26089;43.538;5.250;2022-08-01T12:37:26;3.83;;;2.28;;
16288;SDS011;26089;43.538;5.250;2022-08-01T12:39:54;2.95;;;1.98;;
16288;SDS011;26089;43.538;5.250;2022-08-01T12:42:23;3.60;;;1.90;;
16288;SDS011;26089;43.538;5.250;2022-08-01T12:44:51;2.20;;;2.00;;
16288;SDS011;26089;43.538;5.250;2022-08-01T12:47:18;3.83;;;2.20;;
16288;SDS011;26089;43.538;5.250;2022-08-01T12:49:46;2.70;;;1.95;;
16288;SDS011;26089;43.538;5.250;2022-08-01T12:52:14;2.53;;;1.90;;
16288;SDS011;26089;43.538;5.250;2022-08-01T12:57:39;2.40;;;2.20;;
16288;SDS011;26089;43.538;5.250;2022-08-01T13:00:17;3.08;;;2.10;;
16288;SDS011;26089;43.538;5.250;2022-08-01T13:02:46;2.10;;;2.00;;
16288;SDS011;26089;43.538;5.250;2022-08-01T13:05:14;3.22;;;2.10;;
16288;SDS011;26089;43.538;5.250;2022-08-01T13:07:43;2.22;;;2.03;;
16288;SDS011;26089;43.538;5.250;2022-08-01T13:10:12;4.78;;;2.10;;
16288;SDS011;26089;43.538;5.250;2022-08-01T13:12:50;3.55;;;2.10;;
16288;SDS011;26089;43.538;5.250;2022-08-01T13:15:20;3.25;;;2.35;;
16288;SDS011;26089;43.538;5.250;2022-08-01T13:17:50;2.35;;;2.05;;
16288;SDS011;26089;43.538;5.250;2022-08-01T13:20:27;2.47;;;2.15;;
16288;SDS011;26089;43.538;5.250;2022-08-01T13:22:57;2.05;;;1.90;;
16288;SDS011;26089;43.538;5.250;2022-08-01T13:25:46;2.20;;;1.98;;
16288;SDS011;26089;43.538;5.250;2022-08-01T13:28:15;2.28;;;1.55;;
16288;SDS011;26089;43.538;5.250;2022-08-01T13:30:50;2.63;;;2.08;;
16288;SDS011;26089;43.538;5.250;2022-08-01T13:33:22;2.08;;;1.98;;
16288;SDS011;26089;43.538;5.250;2022-08-01T13:35:50;2.20;;;2.03;;
16288;SDS011;26089;43.538;5.250;2022-08-01T13:38:17;6.18;;;2.13;;
16288;SDS011;26089;43.538;5.250;2022-08-01T13:40:45;3.22;;;2.42;;
16288;SDS011;26089;43.538;5.250;2022-08-01T13:43:11;2.22;;;2.03;;
16288;SDS011;26089;43.538;5.250;2022-08-01T13:45:40;2.95;;;2.10;;
16288;SDS011;26089;43.538;5.250;2022-08-01T13:48:07;2.25;;;2.15;;
16288;SDS011;26089;43.538;5.250;2022-08-01T13:50:34;5.65;;;2.20;;
16288;SDS011;26089;43.538;5.250;2022-08-01T13:53:01;4.20;;;2.20;;
16288;SDS011;26089;43.538;5.250;2022-08-01T13:55:28;5.28;;;2.13;;
16288;SDS011;26089;43.538;5.250;2022-08-01T13:57:55;4.82;;;2.50;;
16288;SDS011;26089;43.538;5.250;2022-08-01T14:00:22;6.07;;;2.22;;
16288;SDS011;26089;43.538;5.250;2022-08-01T14:02:50;2.83;;;2.15;;
16288;SDS011;26089;43.538;5.250;2022-08-01T14:05:17;2.47;;;2.20;;
16288;SDS011;26089;43.538;5.250;2022-08-01T14:07:44;5.93;;;2.45;;
16288;SDS011;26089;43.538;5.250;2022-08-01T14:10:11;5.57;;;2.47;;
16288;SDS011;26089;43.538;5.250;2022-08-01T14:12:38;2.90;;;2.50;;
16288;SDS011;26089;43.538;5.250;2022-08-01T14:15:06;2.80;;;2.55;;
16288;SDS011;26089;43.538;5.250;2022-08-01T14:17:33;4.03;;;2.30;;
16288;SDS011;26089;43.538;5.250;2022-08-01T14:20:02;7.93;;;2.65;;
16288;SDS011;26089;43.538;5.250;2022-08-01T14:22:30;4.88;;;2.45;;
16288;SDS011;26089;43.538;5.250;2022-08-01T14:24:57;4.18;;;2.42;;
16288;SDS011;26089;43.538;5.250;2022-08-01T14:27:25;4.93;;;2.55;;
16288;SDS011;26089;43.538;5.250;2022-08-01T14:29:55;3.60;;;2.70;;
16288;SDS011;26089;43.538;5.250;2022-08-01T14:32:22;3.78;;;2.45;;
16288;SDS011;26089;43.538;5.250;2022-08-01T14:34:49;3.80;;;2.50;;
16288;SDS011;26089;43.538;5.250;2022-08-01T14:37:17;3.08;;;2.55;;
16288;SDS011;26089;43.538;5.250;2022-08-01T14:39:44;3.47;;;2.70;;
16288;SDS011;26089;43.538;5.250;2022-08-01T14:42:11;4.00;;;2.53;;
16288;SDS011;26089;43.538;5.250;2022-08-01T14:44:38;3.70;;;2.70;;
16288;SDS011;26089;43.538;5.250;2022-08-01T14:47:05;2.58;;;2.38;;
16288;SDS011;26089;43.538;5.250;2022-08-01T14:49:32;3.60;;;2.10;;
16288;SDS011;26089;43.538;5.250;2022-08-01T14:51:59;2.60;;;2.38;;
16288;SDS011;26089;43.538;5.250;2022-08-01T14:54:28;4.57;;;2.30;;
16288;SDS011;26089;43.538;5.250;2022-08-01T14:56:55;4.15;;;2.33;;
16288;SDS011;26089;43.538;5.250;2022-08-01T14:59:22;3.28;;;2.30;;
16288;SDS011;26089;43.538;5.250;2022-08-01T15:01:49;4.95;;;2.60;;
16288;SDS011;26089;43.538;5.250;2022-08-01T15:04:16;4.07;;;2.38;;
16288;SDS011;26089;43.538;5.250;2022-08-01T15:06:43;5.20;;;2.47;;
16288;SDS011;26089;43.538;5.250;2022-08-01T15:09:10;4.50;;;2.80;;
16288;SDS011;26089;43.538;5.250;2022-08-01T15:11:38;5.47;;;2.97;;
16288;SDS011;26089;43.538;5.250;2022-08-01T15:14:05;4.07;;;2.88;;
16288;SDS011;26089;43.538;5.250;2022-08-01T15:16:50;6.03;;;2.78;;